createdAt,value
2022-10-25T00:01:36.007Z,6.93
2022-10-25T00:04:04.374Z,7.05
2022-10-25T00:06:32.263Z,6.80
2022-10-25T00:09:00.899Z,7.93
2022-10-25T00:11:30.689Z,7.40
2022-10-25T00:14:02.453Z,6.05
2022-10-25T00:16:32.139Z,6.22
2022-10-25T00:19:00.121Z,6.68
2022-10-25T00:21:28.342Z,5.97
2022-10-25T00:23:56.316Z,5.45
2022-10-25T00:26:24.273Z,5.07
2022-10-25T00:28:54.326Z,5.05
2022-10-25T00:31:24.204Z,7.03
2022-10-25T00:33:52.646Z,5.63
2022-10-25T00:36:22.805Z,7.30
2022-10-25T00:38:51.093Z,8.02
2022-10-25T00:41:21.741Z,7.00
2022-10-25T00:43:51.638Z,6.10
2022-10-25T00:46:25.320Z,5.55
2022-10-25T00:48:56.983Z,10.32
2022-10-25T00:51:32.417Z,5.82
2022-10-25T00:54:00.613Z,6.80
2022-10-25T00:56:31.997Z,6.72
2022-10-25T00:59:07.583Z,6.57
2022-10-25T01:01:39.809Z,5.50
2022-10-25T01:04:12.625Z,6.15
2022-10-25T01:06:42.797Z,6.90
2022-10-25T01:09:15.424Z,9.10
2022-10-25T01:11:43.349Z,7.72
2022-10-25T01:14:15.244Z,8.13
2022-10-25T01:16:54.080Z,8.43
2022-10-25T01:19:40.729Z,7.00
2022-10-25T01:22:12.825Z,6.88
2022-10-25T01:25:32.115Z,6.93
2022-10-25T01:28:08.287Z,6.55
2022-10-25T01:31:00.691Z,7.65
2022-10-25T01:33:34.729Z,7.05
2022-10-25T01:36:09.454Z,7.60
2022-10-25T01:38:43.699Z,6.35
2022-10-25T01:41:20.819Z,5.15
2022-10-25T01:44:05.870Z,6.13
2022-10-25T01:46:45.923Z,7.38
2022-10-25T01:49:19.205Z,6.78
2022-10-25T01:51:47.141Z,6.57
2022-10-25T01:54:20.229Z,6.15
2022-10-25T01:56:58.845Z,6.32
2022-10-25T01:59:48.511Z,7.35
2022-10-25T02:02:25.134Z,6.70
2022-10-25T02:05:02.179Z,6.90
2022-10-25T02:07:36.644Z,8.23
2022-10-25T02:10:09.044Z,6.55
2022-10-25T02:12:44.012Z,6.43
2022-10-25T02:15:19.831Z,6.85
2022-10-25T02:17:56.050Z,7.57
2022-10-25T02:20:27.217Z,7.65
2022-10-25T02:22:56.365Z,8.88
2022-10-25T02:25:24.535Z,9.43
2022-10-25T02:27:55.444Z,9.65
2022-10-25T02:30:23.459Z,10.45
2022-10-25T02:32:53.030Z,8.80
2022-10-25T02:35:21.353Z,8.20
2022-10-25T02:37:49.583Z,10.25
2022-10-25T02:40:17.760Z,9.23
2022-10-25T02:42:45.761Z,8.02
2022-10-25T02:45:17.804Z,10.27
2022-10-25T02:47:45.941Z,9.55
2022-10-25T02:50:15.580Z,8.73
2022-10-25T02:52:43.775Z,9.02
2022-10-25T02:55:11.928Z,10.00
2022-10-25T02:57:39.954Z,9.82
2022-10-25T03:00:09.515Z,9.55
2022-10-25T03:02:37.515Z,10.82
2022-10-25T03:05:06.001Z,11.38
2022-10-25T03:07:35.297Z,11.52
2022-10-25T03:10:03.256Z,10.95
2022-10-25T03:12:31.191Z,11.20
2022-10-25T03:14:59.104Z,12.05
2022-10-25T03:17:27.046Z,12.15
2022-10-25T03:19:54.970Z,13.15
2022-10-25T03:22:22.876Z,10.38
2022-10-25T03:24:55.214Z,11.30
2022-10-25T03:27:23.225Z,10.25
2022-10-25T03:29:51.272Z,13.20
2022-10-25T03:32:19.182Z,11.70
2022-10-25T03:34:47.118Z,11.38
2022-10-25T03:37:14.999Z,13.70
2022-10-25T03:39:42.937Z,16.15
2022-10-25T03:42:12.199Z,10.77
2022-10-25T03:44:40.262Z,10.98
2022-10-25T03:47:08.193Z,13.32
2022-10-25T03:49:36.132Z,13.57
2022-10-25T03:52:06.052Z,12.13
2022-10-25T03:54:34.302Z,12.43
2022-10-25T03:57:03.078Z,14.43
2022-10-25T03:59:33.437Z,13.48
2022-10-25T04:02:02.154Z,16.13
2022-10-25T04:04:30.197Z,15.35
2022-10-25T04:06:58.167Z,12.30
2022-10-25T04:09:26.204Z,11.95
2022-10-25T04:11:54.141Z,9.82
2022-10-25T04:14:22.312Z,13.95
2022-10-25T04:16:51.667Z,11.70
2022-10-25T04:19:19.698Z,11.77
2022-10-25T04:21:47.629Z,8.70
2022-10-25T04:24:15.615Z,11.30
2022-10-25T04:26:43.587Z,12.45
2022-10-25T04:29:12.551Z,12.43
2022-10-25T04:31:40.510Z,10.68
2022-10-25T04:34:09.768Z,9.20
2022-10-25T04:36:38.990Z,9.52
2022-10-25T04:39:06.940Z,10.23
2022-10-25T04:41:34.881Z,9.90
2022-10-25T04:44:02.815Z,8.85
2022-10-25T04:46:30.766Z,9.23
2022-10-25T04:48:58.704Z,9.38
2022-10-25T04:51:28.103Z,7.90
2022-10-25T04:53:56.166Z,10.55
2022-10-25T04:56:24.634Z,8.63
2022-10-25T04:58:52.561Z,8.65
2022-10-25T05:01:21.454Z,8.93
2022-10-25T05:03:49.939Z,8.63
2022-10-25T05:06:19.443Z,9.45
2022-10-25T05:08:50.585Z,9.40
2022-10-25T05:11:21.175Z,8.80
2022-10-25T05:13:49.336Z,7.60
2022-10-25T05:16:21.290Z,7.53
2022-10-25T05:18:50.088Z,6.35
2022-10-25T05:21:19.164Z,8.68
2022-10-25T05:23:48.505Z,8.13
2022-10-25T05:26:17.958Z,7.40
2022-10-25T05:28:47.508Z,7.43
2022-10-25T05:31:16.905Z,7.70
2022-10-25T05:33:46.111Z,6.68
2022-10-25T05:36:14.832Z,7.80
2022-10-25T05:38:43.390Z,7.18
2022-10-25T05:41:14.392Z,6.45
2022-10-25T05:43:45.893Z,6.90
2022-10-25T05:46:15.880Z,5.75
2022-10-25T05:48:48.351Z,5.15
2022-10-25T05:51:33.308Z,6.03
2022-10-25T05:54:04.673Z,7.60
2022-10-25T05:56:35.155Z,7.10
2022-10-25T05:59:04.298Z,6.45
2022-10-25T06:01:32.322Z,6.32
2022-10-25T06:04:01.605Z,6.20
2022-10-25T06:06:29.655Z,5.55
2022-10-25T06:08:58.579Z,5.43
2022-10-25T06:11:27.409Z,6.78
2022-10-25T06:13:56.815Z,6.13
2022-10-25T06:16:25.302Z,5.05
2022-10-25T06:18:54.681Z,5.20
2022-10-25T06:21:24.750Z,5.97
2022-10-25T06:23:53.679Z,5.32
2022-10-25T06:26:23.469Z,5.32
2022-10-25T06:28:54.051Z,6.22
2022-10-25T06:31:23.921Z,5.57
2022-10-25T06:33:52.588Z,6.63
2022-10-25T06:36:21.913Z,6.53
2022-10-25T06:38:50.490Z,6.60
2022-10-25T06:41:19.633Z,6.55
2022-10-25T06:43:48.253Z,6.72
2022-10-25T06:46:21.730Z,7.93
2022-10-25T06:48:51.935Z,6.32
2022-10-25T06:51:21.441Z,5.57
2022-10-25T06:53:54.836Z,6.30
2022-10-25T06:56:26.266Z,5.47
2022-10-25T06:58:54.581Z,5.82
2022-10-25T07:01:24.135Z,6.07
2022-10-25T07:03:55.127Z,5.38
2022-10-25T07:06:28.236Z,5.10
2022-10-25T07:08:58.792Z,5.00
2022-10-25T07:11:28.748Z,5.25
2022-10-25T07:13:58.421Z,5.85
2022-10-25T07:16:27.606Z,6.70
2022-10-25T07:19:00.603Z,5.75
2022-10-25T07:21:29.895Z,5.90
2022-10-25T07:23:57.893Z,5.65
2022-10-25T07:26:28.256Z,5.97
2022-10-25T07:28:58.188Z,5.63
2022-10-25T07:31:28.218Z,6.07
2022-10-25T07:33:59.049Z,5.78
2022-10-25T07:36:28.867Z,5.35
2022-10-25T07:38:57.252Z,5.72
2022-10-25T07:41:25.539Z,6.18
2022-10-25T07:43:53.497Z,5.65
2022-10-25T07:46:21.931Z,5.93
2022-10-25T07:48:49.984Z,5.80
2022-10-25T07:51:19.222Z,4.75
2022-10-25T07:53:48.560Z,4.57
2022-10-25T07:56:22.485Z,3.15
2022-10-25T07:58:52.816Z,4.00
2022-10-25T08:01:23.300Z,3.00
2022-10-25T08:03:51.695Z,4.07
2022-10-25T08:06:21.089Z,2.80
2022-10-25T08:08:50.422Z,4.28
2022-10-25T08:11:18.468Z,2.97
2022-10-25T08:13:50.575Z,3.30
2022-10-25T08:16:19.046Z,3.85
2022-10-25T08:18:47.202Z,3.63
2022-10-25T08:21:15.212Z,2.85
2022-10-25T08:23:43.223Z,3.20
2022-10-25T08:26:14.783Z,2.97
2022-10-25T08:28:45.719Z,3.45
2022-10-25T08:31:15.723Z,2.38
2022-10-25T08:33:43.646Z,3.00
2022-10-25T08:36:11.634Z,2.22
2022-10-25T08:38:39.638Z,2.58
2022-10-25T08:41:14.674Z,1.50
2022-10-25T08:44:09.003Z,2.50
2022-10-25T08:46:40.592Z,2.10
2022-10-25T08:49:17.715Z,2.60
2022-10-25T08:51:48.294Z,2.47
2022-10-25T08:54:25.182Z,2.50
2022-10-25T08:57:14.713Z,1.67
2022-10-25T08:59:50.441Z,2.28
2022-10-25T09:02:24.759Z,1.52
2022-10-25T09:04:52.890Z,2.17
2022-10-25T09:07:47.393Z,2.67
2022-10-25T09:10:24.151Z,2.30
2022-10-25T09:12:58.621Z,2.22
2022-10-25T09:15:43.296Z,2.55
2022-10-25T09:18:16.899Z,3.03
2022-10-25T09:20:51.090Z,3.42
2022-10-25T09:23:27.680Z,3.00
2022-10-25T09:26:05.010Z,2.75
2022-10-25T09:28:50.712Z,2.08
2022-10-25T09:31:23.299Z,2.25
2022-10-25T09:33:54.618Z,1.90
2022-10-25T09:36:23.082Z,1.65
2022-10-25T09:38:56.472Z,1.63
2022-10-25T09:41:36.533Z,1.50
2022-10-25T09:44:07.698Z,1.70
2022-10-25T09:46:42.039Z,1.63
2022-10-25T09:49:26.251Z,1.58
2022-10-25T09:52:02.167Z,1.65
2022-10-25T09:54:33.968Z,1.63
2022-10-25T09:57:01.947Z,2.13
2022-10-25T09:59:30.115Z,1.88
2022-10-25T10:02:00.872Z,1.30
2022-10-25T10:04:35.982Z,1.73
2022-10-25T10:07:08.656Z,2.25
2022-10-25T10:09:44.798Z,2.03
2022-10-25T10:12:21.510Z,2.05
2022-10-25T10:14:56.475Z,2.10
2022-10-25T10:17:27.304Z,2.65
2022-10-25T10:20:14.985Z,2.38
2022-10-25T10:22:52.201Z,3.38
2022-10-25T10:25:24.657Z,3.80
2022-10-25T10:27:55.093Z,3.25
2022-10-25T10:30:26.273Z,3.13
2022-10-25T10:32:58.419Z,2.92
2022-10-25T10:35:32.360Z,3.58
2022-10-25T10:38:15.664Z,3.40
2022-10-25T10:40:46.633Z,4.38
2022-10-25T10:43:31.888Z,3.90
2022-10-25T10:46:04.266Z,3.53
2022-10-25T10:48:42.016Z,2.83
2022-10-25T10:51:25.275Z,2.88
2022-10-25T10:53:59.897Z,2.63
2022-10-25T10:56:30.622Z,3.13
2022-10-25T10:58:58.945Z,2.55
2022-10-25T11:01:33.512Z,2.22
2022-10-25T11:04:03.338Z,2.78
2022-10-25T11:06:33.672Z,2.78
2022-10-25T11:09:17.823Z,3.20
2022-10-25T11:11:46.866Z,3.17
2022-10-25T11:14:16.623Z,2.67
2022-10-25T11:16:54.097Z,3.10
2022-10-25T11:19:47.591Z,3.33
2022-10-25T11:22:37.320Z,3.72
2022-10-25T11:25:22.708Z,3.97
2022-10-25T11:28:03.721Z,3.45
2022-10-25T11:30:40.337Z,3.47
2022-10-25T11:33:37.534Z,3.45
2022-10-25T11:36:19.360Z,3.22
2022-10-25T11:39:00.002Z,3.33
2022-10-25T11:41:37.375Z,3.80
2022-10-25T11:44:23.174Z,3.13
2022-10-25T11:46:59.943Z,2.80
2022-10-25T11:49:38.411Z,2.63
2022-10-25T11:52:30.180Z,3.10
2022-10-25T11:55:09.288Z,2.83
2022-10-25T11:57:44.750Z,2.92
2022-10-25T12:00:16.787Z,3.50
2022-10-25T12:03:02.883Z,2.35
2022-10-25T12:05:38.469Z,3.17
2022-10-25T12:08:23.626Z,2.30
2022-10-25T12:10:57.053Z,3.10
2022-10-25T12:13:30.254Z,3.15
2022-10-25T12:15:59.764Z,3.05
2022-10-25T12:18:32.888Z,3.55
2022-10-25T12:21:02.464Z,4.20
2022-10-25T12:23:40.156Z,2.85
2022-10-25T12:26:17.671Z,2.58
2022-10-25T12:28:48.083Z,2.78
2022-10-25T12:31:19.638Z,2.10
2022-10-25T12:33:53.856Z,2.97
2022-10-25T12:36:28.868Z,2.53
2022-10-25T12:39:00.707Z,2.50
2022-10-25T12:41:33.579Z,2.58
2022-10-25T12:44:17.350Z,1.60
2022-10-25T12:47:23.178Z,2.70
2022-10-25T12:50:30.935Z,2.63
2022-10-25T12:53:26.027Z,3.13
2022-10-25T12:56:02.970Z,2.58
2022-10-25T12:58:47.571Z,2.45
2022-10-25T13:01:37.008Z,2.53
2022-10-25T13:04:26.905Z,1.83
2022-10-25T13:06:55.962Z,2.28
2022-10-25T13:09:27.090Z,2.33
2022-10-25T13:12:00.024Z,2.15
2022-10-25T13:14:30.349Z,2.88
2022-10-25T13:17:35.568Z,2.58
2022-10-25T13:20:45.444Z,2.45
2022-10-25T13:23:49.344Z,2.63
2022-10-25T13:26:19.622Z,2.20
2022-10-25T13:28:50.223Z,3.60
2022-10-25T13:31:58.980Z,3.67
2022-10-25T13:34:36.527Z,3.10
2022-10-25T13:37:07.218Z,3.17
2022-10-25T13:39:39.651Z,3.40
2022-10-25T13:42:21.897Z,3.97
2022-10-25T13:44:56.319Z,2.95
2022-10-25T13:47:35.169Z,3.30
2022-10-25T13:50:13.564Z,3.35
2022-10-25T13:52:47.403Z,3.60
2022-10-25T13:55:17.286Z,3.45
2022-10-25T13:57:56.497Z,3.15
2022-10-25T14:00:47.876Z,4.03
2022-10-25T14:03:35.636Z,3.78
2022-10-25T14:06:12.187Z,3.83
2022-10-25T14:08:52.202Z,3.42
2022-10-25T14:11:24.904Z,3.42
2022-10-25T14:13:56.718Z,3.63
2022-10-25T14:16:29.909Z,3.28
2022-10-25T14:19:02.887Z,3.10
2022-10-25T14:21:30.982Z,3.60
2022-10-25T14:24:00.629Z,3.75
2022-10-25T14:26:28.599Z,4.40
2022-10-25T14:29:14.262Z,2.63
2022-10-25T14:31:44.098Z,2.42
2022-10-25T14:34:20.459Z,2.92
2022-10-25T14:36:53.138Z,3.58
2022-10-25T14:39:24.003Z,3.72
2022-10-25T14:41:54.184Z,3.58
2022-10-25T14:44:25.569Z,2.95
2022-10-25T14:46:55.925Z,3.08
2022-10-25T14:49:24.754Z,2.90
2022-10-25T14:51:56.422Z,3.80
2022-10-25T14:54:28.587Z,4.10
2022-10-25T14:56:59.878Z,4.80
2022-10-25T14:59:32.142Z,4.88
2022-10-25T15:02:05.906Z,4.57
2022-10-25T15:04:36.191Z,4.95
2022-10-25T15:07:04.722Z,5.07
2022-10-25T15:09:49.044Z,4.30
2022-10-25T15:12:19.828Z,4.28
2022-10-25T15:14:48.492Z,4.60
2022-10-25T15:17:26.224Z,4.05
2022-10-25T15:19:59.090Z,4.25
2022-10-25T15:22:29.910Z,6.07
2022-10-25T15:24:58.640Z,6.63
2022-10-25T15:27:32.510Z,7.50
2022-10-25T15:30:00.466Z,6.43
2022-10-25T15:32:30.129Z,9.82
2022-10-25T15:35:00.926Z,10.43
2022-10-25T15:37:30.429Z,8.75
2022-10-25T15:39:58.731Z,7.53
2022-10-25T15:42:27.700Z,7.65
2022-10-25T15:44:55.665Z,7.75
2022-10-25T15:47:37.311Z,5.72
2022-10-25T15:50:13.624Z,5.10
2022-10-25T15:52:41.872Z,4.57
2022-10-25T15:55:18.576Z,4.38
2022-10-25T15:57:46.809Z,5.88
2022-10-25T16:00:15.848Z,5.90
2022-10-25T16:02:46.840Z,5.68
2022-10-25T16:05:20.863Z,5.63
2022-10-25T16:07:48.843Z,4.82
2022-10-25T16:10:17.132Z,3.83
2022-10-25T16:12:47.813Z,4.78
2022-10-25T16:15:18.697Z,5.40
2022-10-25T16:17:48.692Z,7.32
2022-10-25T16:20:19.031Z,5.68
2022-10-25T16:22:47.850Z,8.48
2022-10-25T16:25:16.752Z,9.73
2022-10-25T16:27:46.359Z,16.15
2022-10-25T16:30:16.627Z,38.58
2022-10-25T16:32:44.945Z,11.32
2022-10-25T16:35:15.764Z,10.43
2022-10-25T16:37:44.455Z,10.80
2022-10-25T16:40:16.007Z,19.23
2022-10-25T16:42:44.503Z,11.00
2022-10-25T16:45:16.046Z,7.05
2022-10-25T16:47:44.024Z,8.32
2022-10-25T16:50:11.968Z,7.38
2022-10-25T16:52:41.262Z,7.03
2022-10-25T16:55:10.499Z,4.97
2022-10-25T16:57:38.455Z,4.68
2022-10-25T17:00:07.693Z,5.28
2022-10-25T17:02:35.670Z,7.50
2022-10-25T17:05:03.616Z,9.18
2022-10-25T17:07:31.687Z,8.85
2022-10-25T17:10:01.012Z,7.40
2022-10-25T17:12:28.973Z,8.95
2022-10-25T17:14:56.972Z,18.92
2022-10-25T17:17:25.729Z,8.70
2022-10-25T17:19:53.686Z,10.27
2022-10-25T17:22:22.403Z,6.60
2022-10-25T17:24:50.308Z,9.43
2022-10-25T17:27:21.769Z,9.02
2022-10-25T17:29:49.720Z,6.80
2022-10-25T17:32:17.658Z,6.13
2022-10-25T17:34:45.585Z,5.63
2022-10-25T17:37:13.514Z,5.32
2022-10-25T17:39:41.607Z,6.22
2022-10-25T17:42:09.556Z,6.78
2022-10-25T17:44:38.839Z,6.65
2022-10-25T17:47:06.751Z,7.47
2022-10-25T17:49:35.156Z,7.85
2022-10-25T17:52:03.328Z,7.70
2022-10-25T17:54:31.256Z,8.18
2022-10-25T17:57:01.127Z,7.95
2022-10-25T17:59:30.198Z,7.68
2022-10-25T18:02:00.164Z,6.72
2022-10-25T18:04:33.235Z,6.88
2022-10-25T18:07:10.153Z,7.43
2022-10-25T18:09:38.114Z,7.13
2022-10-25T18:12:07.603Z,6.72
2022-10-25T18:14:35.519Z,6.75
2022-10-25T18:17:06.511Z,6.28
2022-10-25T18:19:34.443Z,7.63
2022-10-25T18:22:04.135Z,7.38
2022-10-25T18:24:33.361Z,6.57
2022-10-25T18:27:01.242Z,7.32
2022-10-25T18:29:29.161Z,6.72
2022-10-25T18:31:57.079Z,7.07
2022-10-25T18:34:32.470Z,6.53
2022-10-25T18:37:01.334Z,6.88
2022-10-25T18:39:29.276Z,6.00
2022-10-25T18:41:58.059Z,7.05
2022-10-25T18:44:26.054Z,6.93
2022-10-25T18:46:55.821Z,7.47
2022-10-25T18:49:23.826Z,6.85
2022-10-25T18:51:53.165Z,6.97
2022-10-25T18:54:21.072Z,7.68
2022-10-25T18:56:50.186Z,7.78
2022-10-25T18:59:19.300Z,7.18
2022-10-25T19:01:47.510Z,7.55
2022-10-25T19:04:15.728Z,7.78
2022-10-25T19:06:44.297Z,7.55
2022-10-25T19:09:14.321Z,6.95
2022-10-25T19:11:43.843Z,6.20
2022-10-25T19:14:11.775Z,7.35
2022-10-25T19:16:41.452Z,6.85
2022-10-25T19:19:11.832Z,6.38
2022-10-25T19:21:40.171Z,6.72
2022-10-25T19:24:11.774Z,5.97
2022-10-25T19:26:41.780Z,6.82
2022-10-25T19:29:10.547Z,10.70
2022-10-25T19:31:38.602Z,13.60
2022-10-25T19:34:06.590Z,12.90
2022-10-25T19:36:34.868Z,8.05
2022-10-25T19:39:04.925Z,7.95
2022-10-25T19:41:32.893Z,7.32
2022-10-25T19:44:02.261Z,6.00
2022-10-25T19:46:30.184Z,6.35
2022-10-25T19:49:00.201Z,7.25
2022-10-25T19:51:28.546Z,6.32
2022-10-25T19:53:56.638Z,6.68
2022-10-25T19:56:27.061Z,7.32
2022-10-25T19:58:55.122Z,6.72
2022-10-25T20:01:27.159Z,6.85
2022-10-25T20:03:57.783Z,8.35
2022-10-25T20:06:27.442Z,9.27
2022-10-25T20:08:56.322Z,11.15
2022-10-25T20:11:25.831Z,11.65
2022-10-25T20:13:54.959Z,13.90
2022-10-25T20:16:25.146Z,12.38
2022-10-25T20:18:53.477Z,15.63
2022-10-25T20:21:25.882Z,16.38
2022-10-25T20:23:56.051Z,13.32
2022-10-25T20:26:25.933Z,11.35
2022-10-25T20:28:54.805Z,10.93
2022-10-25T20:31:25.302Z,9.98
2022-10-25T20:33:54.159Z,12.15
2022-10-25T20:36:23.850Z,12.85
2022-10-25T20:38:52.175Z,11.43
2022-10-25T20:41:24.637Z,11.48
2022-10-25T20:43:55.160Z,12.48
2022-10-25T20:46:27.581Z,10.70
2022-10-25T20:48:55.721Z,13.88
2022-10-25T20:51:24.031Z,10.77
2022-10-25T20:53:52.181Z,11.43
2022-10-25T20:56:22.345Z,9.80
2022-10-25T20:58:50.391Z,8.55
2022-10-25T21:01:18.476Z,9.68
2022-10-25T21:03:47.907Z,10.70
2022-10-25T21:06:15.830Z,10.55
2022-10-25T21:08:43.789Z,9.98
2022-10-25T21:11:14.037Z,9.85
2022-10-25T21:13:42.101Z,10.00
2022-10-25T21:16:11.851Z,11.32
2022-10-25T21:18:40.133Z,9.95
2022-10-25T21:21:11.645Z,8.30
2022-10-25T21:23:39.616Z,8.48
2022-10-25T21:26:09.437Z,8.23
2022-10-25T21:28:38.828Z,8.48
2022-10-25T21:31:08.957Z,7.30
2022-10-25T21:33:36.988Z,8.30
2022-10-25T21:36:06.533Z,9.00
2022-10-25T21:38:36.290Z,7.82
2022-10-25T21:41:12.075Z,7.90
2022-10-25T21:43:45.675Z,8.35
2022-10-25T21:46:13.943Z,9.43
2022-10-25T21:51:49.313Z,9.60
2022-10-25T21:54:21.338Z,7.82
2022-10-25T21:57:07.867Z,8.13
2022-10-25T21:59:35.986Z,8.60
2022-10-25T22:02:05.762Z,8.50
2022-10-25T22:04:34.117Z,6.55
2022-10-25T22:07:02.416Z,8.60
2022-10-25T22:09:31.700Z,7.70
2022-10-25T22:11:59.627Z,8.02
2022-10-25T22:14:27.673Z,9.70
2022-10-25T22:16:55.562Z,8.18
2022-10-25T22:21:56.909Z,8.27
2022-10-25T22:24:24.977Z,8.88
2022-10-25T22:26:54.233Z,8.20
2022-10-25T22:29:25.260Z,7.55
2022-10-25T22:31:53.165Z,8.10
2022-10-25T22:34:21.107Z,8.35
2022-10-25T22:36:49.044Z,8.93
2022-10-25T22:39:17.004Z,8.43
2022-10-25T22:41:45.998Z,8.07
2022-10-25T22:44:15.653Z,34.90
2022-10-25T22:46:43.584Z,11.63
2022-10-25T22:49:11.528Z,8.48
2022-10-25T22:51:40.037Z,7.95
2022-10-25T22:54:08.535Z,8.23
2022-10-25T22:56:36.692Z,7.78
2022-10-25T22:59:06.451Z,9.13
2022-10-25T23:01:37.569Z,8.07
2022-10-25T23:04:07.636Z,7.32
2022-10-25T23:06:37.885Z,8.00
2022-10-25T23:09:08.870Z,6.70
2022-10-25T23:11:38.279Z,6.55
2022-10-25T23:14:07.394Z,7.15
2022-10-25T23:16:36.987Z,7.55
2022-10-25T23:19:04.952Z,7.20
2022-10-25T23:21:33.368Z,7.82
2022-10-25T23:24:03.979Z,7.38
2022-10-25T23:26:33.752Z,7.18
2022-10-25T23:29:02.145Z,7.53
2022-10-25T23:31:30.964Z,7.60
2022-10-25T23:34:01.834Z,6.38
2022-10-25T23:36:37.080Z,6.22
2022-10-25T23:39:06.149Z,6.97
2022-10-25T23:41:34.090Z,7.25
2022-10-25T23:44:03.858Z,7.10
2022-10-25T23:46:32.025Z,6.57
2022-10-25T23:49:01.404Z,6.72
2022-10-25T23:51:29.365Z,6.53
2022-10-25T23:53:57.276Z,6.93
2022-10-25T23:56:25.606Z,8.25
2022-10-25T23:58:54.014Z,7.88
